createdAt,value
2022-08-26T00:01:56.211Z,2.55
2022-08-26T00:04:25.630Z,1.92
2022-08-26T00:06:53.790Z,1.80
2022-08-26T00:09:21.462Z,1.92
2022-08-26T00:11:48.560Z,2.25
2022-08-26T00:14:16.669Z,2.05
2022-08-26T00:16:47.495Z,1.92
2022-08-26T00:19:18.379Z,1.95
2022-08-26T00:21:46.443Z,1.88
2022-08-26T00:24:16.733Z,1.80
2022-08-26T00:26:44.186Z,1.30
2022-08-26T00:29:12.406Z,1.75
2022-08-26T00:31:40.540Z,1.40
2022-08-26T00:34:09.624Z,1.73
2022-08-26T00:36:39.672Z,1.42
2022-08-26T00:39:08.654Z,1.67
2022-08-26T00:41:38.854Z,1.63
2022-08-26T00:44:06.819Z,1.58
2022-08-26T00:46:46.735Z,2.03
2022-08-26T00:49:19.893Z,1.67
2022-08-26T00:51:51.531Z,1.70
2022-08-26T00:54:21.276Z,1.60
2022-08-26T00:57:16.001Z,1.45
2022-08-26T00:59:48.092Z,1.63
2022-08-26T01:02:20.150Z,1.85
2022-08-26T01:04:54.261Z,1.67
2022-08-26T01:07:25.389Z,1.55
2022-08-26T01:09:52.365Z,1.58
2022-08-26T01:12:22.119Z,2.22
2022-08-26T01:14:49.961Z,1.45
2022-08-26T01:17:16.899Z,1.80
2022-08-26T01:19:52.571Z,1.80
2022-08-26T01:23:03.212Z,1.35
2022-08-26T01:25:33.371Z,1.75
2022-08-26T01:28:05.729Z,1.30
2022-08-26T01:30:34.198Z,1.60
2022-08-26T01:33:04.874Z,1.30
2022-08-26T01:35:32.066Z,1.83
2022-08-26T01:38:02.290Z,1.63
2022-08-26T01:40:32.679Z,1.85
2022-08-26T01:43:02.340Z,1.63
2022-08-26T01:45:33.162Z,1.45
2022-08-26T01:48:03.790Z,1.83
2022-08-26T01:50:36.127Z,1.40
2022-08-26T01:53:07.619Z,1.30
2022-08-26T01:55:38.257Z,1.70
2022-08-26T01:58:13.983Z,1.70
2022-08-26T02:00:41.197Z,1.40
2022-08-26T02:03:17.846Z,1.23
2022-08-26T02:05:59.940Z,1.70
2022-08-26T02:08:41.275Z,1.40
2022-08-26T02:11:08.949Z,1.40
2022-08-26T02:13:41.789Z,1.75
2022-08-26T02:16:11.023Z,1.88
2022-08-26T02:18:40.426Z,1.30
2022-08-26T02:21:08.672Z,1.30
2022-08-26T02:23:35.810Z,1.33
2022-08-26T02:26:08.676Z,1.45
2022-08-26T02:28:51.211Z,1.00
2022-08-26T02:31:18.269Z,1.20
2022-08-26T02:33:45.230Z,1.38
2022-08-26T02:36:13.480Z,1.45
2022-08-26T02:38:43.162Z,1.27
2022-08-26T02:41:11.191Z,1.05
2022-08-26T02:43:38.066Z,1.17
2022-08-26T02:46:05.971Z,1.42
2022-08-26T02:48:33.545Z,1.48
2022-08-26T02:51:01.766Z,1.70
2022-08-26T02:53:31.840Z,1.20
2022-08-26T02:56:02.448Z,1.48
2022-08-26T02:58:30.311Z,1.30
2022-08-26T03:00:57.260Z,1.40
2022-08-26T03:03:24.228Z,1.67
2022-08-26T03:05:52.526Z,1.48
2022-08-26T03:08:20.268Z,1.75
2022-08-26T03:10:48.030Z,1.30
2022-08-26T03:13:16.420Z,1.67
2022-08-26T03:15:44.328Z,0.90
2022-08-26T03:18:13.289Z,1.77
2022-08-26T03:20:40.385Z,1.27
2022-08-26T03:23:08.028Z,0.93
2022-08-26T03:25:36.073Z,1.02
2022-08-26T03:28:03.680Z,1.30
2022-08-26T03:30:45.046Z,1.10
2022-08-26T03:33:13.448Z,0.90
2022-08-26T03:35:42.774Z,1.23
2022-08-26T03:38:10.386Z,1.35
2022-08-26T03:40:37.798Z,1.48
2022-08-26T03:43:07.174Z,1.13
2022-08-26T03:45:37.284Z,1.10
2022-08-26T03:48:05.279Z,1.10
2022-08-26T03:50:34.161Z,1.25
2022-08-26T03:53:03.751Z,1.20
2022-08-26T03:55:32.480Z,1.73
2022-08-26T03:58:00.743Z,1.67
2022-08-26T04:00:28.246Z,1.40
2022-08-26T04:02:55.650Z,1.30
2022-08-26T04:05:23.595Z,1.13
2022-08-26T04:07:51.200Z,1.50
2022-08-26T04:10:28.687Z,1.38
2022-08-26T04:12:58.890Z,1.27
2022-08-26T04:15:27.146Z,1.10
2022-08-26T04:17:54.547Z,1.30
2022-08-26T04:20:23.103Z,1.30
2022-08-26T04:22:50.839Z,1.20
2022-08-26T04:25:18.612Z,1.10
2022-08-26T04:27:48.156Z,0.98
2022-08-26T04:30:16.696Z,1.17
2022-08-26T04:32:43.790Z,1.00
2022-08-26T04:35:10.847Z,1.00
2022-08-26T04:37:38.031Z,0.85
2022-08-26T04:40:06.452Z,1.17
2022-08-26T04:42:33.839Z,1.10
2022-08-26T04:45:01.451Z,1.30
2022-08-26T04:47:32.665Z,1.10
2022-08-26T04:50:01.924Z,0.90
2022-08-26T04:52:29.038Z,1.25
2022-08-26T04:54:55.897Z,0.90
2022-08-26T04:57:23.347Z,0.95
2022-08-26T04:59:50.208Z,0.80
2022-08-26T05:02:17.271Z,1.05
2022-08-26T05:04:44.230Z,1.33
2022-08-26T05:07:11.622Z,1.00
2022-08-26T05:09:40.579Z,1.17
2022-08-26T05:12:07.771Z,0.85
2022-08-26T05:14:36.359Z,0.70
2022-08-26T05:17:03.700Z,0.88
2022-08-26T05:19:31.736Z,1.42
2022-08-26T05:21:59.725Z,1.30
2022-08-26T05:24:26.719Z,1.33
2022-08-26T05:26:54.509Z,1.70
2022-08-26T05:29:23.743Z,1.80
2022-08-26T05:31:52.560Z,1.45
2022-08-26T05:34:20.849Z,1.60
2022-08-26T05:36:48.131Z,1.10
2022-08-26T05:39:15.368Z,1.05
2022-08-26T05:41:44.739Z,1.30
2022-08-26T05:44:14.661Z,1.23
2022-08-26T05:46:42.419Z,1.15
2022-08-26T05:49:13.083Z,1.25
2022-08-26T05:51:42.208Z,1.17
2022-08-26T05:54:10.420Z,1.42
2022-08-26T05:56:38.919Z,0.80
2022-08-26T05:59:14.289Z,1.10
2022-08-26T06:01:43.225Z,0.90
2022-08-26T06:04:10.246Z,1.05
2022-08-26T06:06:41.193Z,1.00
2022-08-26T06:09:11.192Z,0.90
2022-08-26T06:11:39.219Z,1.10
2022-08-26T06:14:07.922Z,0.93
2022-08-26T06:16:38.635Z,0.68
2022-08-26T06:19:11.497Z,1.17
2022-08-26T06:21:41.480Z,1.40
2022-08-26T06:24:30.119Z,1.00
2022-08-26T06:27:01.630Z,1.10
2022-08-26T06:29:31.270Z,0.85
2022-08-26T06:31:58.494Z,0.77
2022-08-26T06:34:30.396Z,1.30
2022-08-26T06:37:01.375Z,0.82
2022-08-26T06:39:30.856Z,0.90
2022-08-26T06:42:02.686Z,1.00
2022-08-26T06:44:34.052Z,1.10
2022-08-26T06:47:00.993Z,0.90
2022-08-26T06:49:27.970Z,1.33
2022-08-26T06:51:58.569Z,0.90
2022-08-26T06:54:27.030Z,1.20
2022-08-26T06:56:55.880Z,1.35
2022-08-26T06:59:23.242Z,1.17
2022-08-26T07:01:50.289Z,0.90
2022-08-26T07:04:21.967Z,0.77
2022-08-26T07:06:52.356Z,0.82
2022-08-26T07:09:19.668Z,1.00
2022-08-26T07:11:46.538Z,0.70
2022-08-26T07:14:14.019Z,0.85
2022-08-26T07:16:41.283Z,1.00
2022-08-26T07:19:10.821Z,0.90
2022-08-26T07:21:41.993Z,1.13
2022-08-26T07:24:11.206Z,1.00
2022-08-26T07:26:42.928Z,1.17
2022-08-26T07:29:12.471Z,1.48
2022-08-26T07:31:42.771Z,1.10
2022-08-26T07:34:10.998Z,1.60
2022-08-26T07:36:38.245Z,1.50
2022-08-26T07:39:06.141Z,1.38
2022-08-26T07:41:34.759Z,1.45
2022-08-26T07:44:01.673Z,1.60
2022-08-26T07:46:30.307Z,1.25
2022-08-26T07:48:58.379Z,1.42
2022-08-26T07:51:26.550Z,1.45
2022-08-26T07:53:54.710Z,2.13
2022-08-26T07:56:23.238Z,1.70
2022-08-26T07:58:53.761Z,1.40
2022-08-26T08:01:23.764Z,1.77
2022-08-26T08:03:52.381Z,1.98
2022-08-26T08:06:21.453Z,1.70
2022-08-26T08:08:50.751Z,1.55
2022-08-26T08:11:22.943Z,1.50
2022-08-26T08:13:55.929Z,1.30
2022-08-26T08:16:29.469Z,1.42
2022-08-26T08:18:59.596Z,1.65
2022-08-26T08:21:28.218Z,1.60
2022-08-26T08:23:57.533Z,1.60
2022-08-26T08:26:25.965Z,1.52
2022-08-26T08:28:57.059Z,1.60
2022-08-26T08:31:55.803Z,1.48
2022-08-26T08:34:13.700Z,1.50
2022-08-26T08:36:50.344Z,2.00
2022-08-26T08:39:20.582Z,1.40
2022-08-26T08:41:57.958Z,1.60
2022-08-26T08:47:01.594Z,1.52
2022-08-26T08:49:30.665Z,1.98
2022-08-26T08:52:04.637Z,1.65
2022-08-26T08:54:32.722Z,1.60
2022-08-26T08:57:22.126Z,2.10
2022-08-26T09:00:00.535Z,2.10
2022-08-26T09:02:52.548Z,1.73
2022-08-26T09:05:48.823Z,1.67
2022-08-26T09:08:28.316Z,1.50
2022-08-26T09:11:00.950Z,1.63
2022-08-26T09:13:31.712Z,2.17
2022-08-26T09:16:08.446Z,1.80
2022-08-26T09:19:02.011Z,1.90
2022-08-26T09:21:31.673Z,1.77
2022-08-26T09:23:58.745Z,1.60
2022-08-26T09:26:45.591Z,1.60
2022-08-26T09:29:27.715Z,2.35
2022-08-26T09:32:16.405Z,2.05
2022-08-26T09:35:01.064Z,1.85
2022-08-26T09:37:43.822Z,1.30
2022-08-26T09:40:27.080Z,1.67
2022-08-26T09:43:22.147Z,1.90
2022-08-26T09:45:59.550Z,1.70
2022-08-26T09:48:35.440Z,1.60
2022-08-26T09:51:29.979Z,1.20
2022-08-26T09:54:00.222Z,1.88
2022-08-26T09:56:28.874Z,1.77
2022-08-26T09:58:56.964Z,1.65
2022-08-26T10:01:23.872Z,1.77
2022-08-26T10:03:51.791Z,1.35
2022-08-26T10:06:20.977Z,1.83
2022-08-26T10:08:52.069Z,1.10
2022-08-26T10:11:43.417Z,1.45
2022-08-26T10:14:16.793Z,1.65
2022-08-26T10:17:07.181Z,1.40
2022-08-26T10:19:57.714Z,1.40
2022-08-26T10:22:33.455Z,1.45
2022-08-26T10:25:03.832Z,1.67
2022-08-26T10:27:50.977Z,1.73
2022-08-26T10:30:24.220Z,1.45
2022-08-26T10:33:13.135Z,1.52
2022-08-26T10:35:56.060Z,1.55
2022-08-26T10:38:32.081Z,1.58
2022-08-26T10:41:13.147Z,1.65
2022-08-26T10:43:49.162Z,1.83
2022-08-26T10:46:22.429Z,1.85
2022-08-26T10:49:03.255Z,1.70
2022-08-26T10:51:38.652Z,1.70
2022-08-26T10:54:15.971Z,1.95
2022-08-26T10:56:54.807Z,1.50
2022-08-26T10:59:46.442Z,2.00
2022-08-26T11:02:14.758Z,2.10
2022-08-26T11:04:59.959Z,1.60
2022-08-26T11:07:39.714Z,2.17
2022-08-26T11:10:22.610Z,1.70
2022-08-26T11:13:03.544Z,2.00
2022-08-26T11:15:30.404Z,1.77
2022-08-26T11:18:08.970Z,1.63
2022-08-26T11:20:41.962Z,2.67
2022-08-26T11:23:22.458Z,1.90
2022-08-26T11:26:01.162Z,1.80
2022-08-26T11:28:49.957Z,2.25
2022-08-26T11:31:26.062Z,1.40
2022-08-26T11:34:00.991Z,1.92
2022-08-26T11:36:32.866Z,1.97
2022-08-26T11:39:24.078Z,1.50
2022-08-26T11:41:54.419Z,1.45
2022-08-26T11:44:24.149Z,1.42
2022-08-26T11:47:00.076Z,1.80
2022-08-26T11:49:29.761Z,1.80
2022-08-26T11:52:15.140Z,1.50
2022-08-26T11:55:00.211Z,1.80
2022-08-26T11:57:29.881Z,1.90
2022-08-26T11:59:57.392Z,1.80
2022-08-26T12:02:26.186Z,2.30
2022-08-26T12:04:54.675Z,1.77
2022-08-26T12:07:29.305Z,1.52
2022-08-26T12:10:00.616Z,2.00
2022-08-26T12:12:35.214Z,1.70
2022-08-26T12:15:18.069Z,1.75
2022-08-26T12:17:51.722Z,2.00
2022-08-26T12:20:48.005Z,1.70
2022-08-26T12:23:45.954Z,2.22
2022-08-26T12:26:28.898Z,1.60
2022-08-26T12:29:12.821Z,2.05
2022-08-26T12:31:47.969Z,1.55
2022-08-26T12:34:18.007Z,1.75
2022-08-26T12:36:54.975Z,2.00
2022-08-26T12:39:33.392Z,2.00
2022-08-26T12:42:02.105Z,1.77
2022-08-26T12:44:37.658Z,2.08
2022-08-26T12:47:23.393Z,1.98
2022-08-26T12:50:19.608Z,2.08
2022-08-26T12:52:58.585Z,2.08
2022-08-26T12:55:47.497Z,1.90
2022-08-26T12:58:20.601Z,1.73
2022-08-26T13:00:48.501Z,2.03
2022-08-26T13:03:34.327Z,1.73
2022-08-26T13:06:23.685Z,1.73
2022-08-26T13:09:09.153Z,1.73
2022-08-26T13:11:57.964Z,2.20
2022-08-26T13:14:24.977Z,1.83
2022-08-26T13:16:52.808Z,1.60
2022-08-26T13:19:22.991Z,1.88
2022-08-26T13:21:55.615Z,1.80
2022-08-26T13:24:38.089Z,2.20
2022-08-26T13:27:08.058Z,1.90
2022-08-26T13:29:35.275Z,1.77
2022-08-26T13:32:03.842Z,1.80
2022-08-26T13:34:32.415Z,2.42
2022-08-26T13:36:59.451Z,1.98
2022-08-26T13:39:26.758Z,1.73
2022-08-26T13:41:54.405Z,1.85
2022-08-26T13:44:21.796Z,2.17
2022-08-26T13:46:49.092Z,2.25
2022-08-26T13:49:16.326Z,1.95
2022-08-26T13:51:43.238Z,1.60
2022-08-26T13:54:10.290Z,2.08
2022-08-26T13:56:37.530Z,1.90
2022-08-26T13:59:05.773Z,2.13
2022-08-26T14:01:34.754Z,2.33
2022-08-26T14:04:02.990Z,1.90
2022-08-26T14:06:30.217Z,2.10
2022-08-26T14:08:57.458Z,2.20
2022-08-26T14:11:24.988Z,2.13
2022-08-26T14:13:52.445Z,2.28
2022-08-26T14:16:37.279Z,1.95
2022-08-26T14:19:24.454Z,2.40
2022-08-26T14:21:51.461Z,1.77
2022-08-26T14:24:18.403Z,2.22
2022-08-26T14:26:48.520Z,2.13
2022-08-26T14:29:16.796Z,2.35
2022-08-26T14:31:44.358Z,1.70
2022-08-26T14:34:13.705Z,1.63
2022-08-26T14:36:40.592Z,1.85
2022-08-26T14:39:10.539Z,2.13
2022-08-26T14:41:54.316Z,1.85
2022-08-26T14:44:31.239Z,1.77
2022-08-26T14:47:01.070Z,1.50
2022-08-26T14:49:28.499Z,2.40
2022-08-26T14:51:55.491Z,1.70
2022-08-26T14:54:22.486Z,2.15
2022-08-26T14:56:54.250Z,1.70
2022-08-26T14:59:24.114Z,1.77
2022-08-26T15:01:52.046Z,2.75
2022-08-26T15:04:19.714Z,2.10
2022-08-26T15:06:47.121Z,1.83
2022-08-26T15:09:15.066Z,1.75
2022-08-26T15:11:42.166Z,2.22
2022-08-26T15:14:14.775Z,1.70
2022-08-26T15:16:48.244Z,1.65
2022-08-26T15:19:16.008Z,2.13
2022-08-26T15:21:45.264Z,1.60
2022-08-26T15:24:12.928Z,2.10
2022-08-26T15:26:40.611Z,2.50
2022-08-26T15:29:07.533Z,1.63
2022-08-26T15:31:34.912Z,2.50
2022-08-26T15:34:05.677Z,1.60
2022-08-26T15:36:33.287Z,1.50
2022-08-26T15:39:01.416Z,2.10
2022-08-26T15:41:29.273Z,1.40
2022-08-26T15:43:56.969Z,2.35
2022-08-26T15:46:24.538Z,1.90
2022-08-26T15:48:51.998Z,1.88
2022-08-26T15:51:25.166Z,1.73
2022-08-26T15:53:52.867Z,1.67
2022-08-26T15:56:19.966Z,1.85
2022-08-26T15:58:47.017Z,1.58
2022-08-26T16:01:14.751Z,1.98
2022-08-26T16:03:45.583Z,2.13
2022-08-26T16:06:16.052Z,2.20
2022-08-26T16:08:45.132Z,1.98
2022-08-26T16:11:13.586Z,1.88
2022-08-26T16:13:40.874Z,1.90
2022-08-26T16:16:08.441Z,1.90
2022-08-26T16:18:35.516Z,2.08
2022-08-26T16:21:13.162Z,2.20
2022-08-26T16:23:44.937Z,1.83
2022-08-26T16:26:19.639Z,2.13
2022-08-26T16:28:47.419Z,1.83
2022-08-26T16:31:15.207Z,2.00
2022-08-26T16:33:42.174Z,1.70
2022-08-26T16:36:10.508Z,1.80
2022-08-26T16:38:38.582Z,2.30
2022-08-26T16:41:06.262Z,1.85
2022-08-26T16:43:33.883Z,1.63
2022-08-26T16:46:01.079Z,2.20
2022-08-26T16:48:28.206Z,2.25
2022-08-26T16:50:55.712Z,1.85
2022-08-26T16:53:23.627Z,1.90
2022-08-26T16:55:51.227Z,2.33
2022-08-26T16:58:18.641Z,2.15
2022-08-26T17:00:45.872Z,1.90
2022-08-26T17:03:13.185Z,2.05
2022-08-26T17:05:40.508Z,1.88
2022-08-26T17:08:07.770Z,1.77
2022-08-26T17:10:35.262Z,2.00
2022-08-26T17:13:02.608Z,2.10
2022-08-26T17:15:29.641Z,2.25
2022-08-26T17:17:56.891Z,1.95
2022-08-26T17:20:24.798Z,2.13
2022-08-26T17:22:53.972Z,2.25
2022-08-26T17:25:25.828Z,2.40
2022-08-26T17:27:53.722Z,1.77
2022-08-26T17:30:21.709Z,1.95
2022-08-26T17:32:49.193Z,2.58
2022-08-26T17:35:17.008Z,2.25
2022-08-26T17:37:44.623Z,2.45
2022-08-26T17:40:15.446Z,2.60
2022-08-26T17:42:42.733Z,2.03
2022-08-26T17:45:10.199Z,2.58
2022-08-26T17:47:40.059Z,2.17
2022-08-26T17:50:09.829Z,2.40
2022-08-26T17:52:37.726Z,2.10
2022-08-26T17:55:09.640Z,2.33
2022-08-26T17:57:40.951Z,2.72
2022-08-26T18:00:14.319Z,2.42
2022-08-26T18:02:41.457Z,2.58
2022-08-26T18:05:11.833Z,2.53
2022-08-26T18:07:43.800Z,2.80
2022-08-26T18:10:15.403Z,2.72
2022-08-26T18:12:42.869Z,2.75
2022-08-26T18:15:11.931Z,2.90
2022-08-26T18:17:41.823Z,2.72
2022-08-26T18:20:11.594Z,2.40
2022-08-26T18:22:38.907Z,2.78
2022-08-26T18:25:08.203Z,3.03
2022-08-26T18:27:36.500Z,2.88
2022-08-26T18:30:07.444Z,2.70
2022-08-26T18:32:34.621Z,2.58
2022-08-26T18:35:02.244Z,2.42
2022-08-26T18:37:31.440Z,2.38
2022-08-26T18:39:59.509Z,2.85
2022-08-26T18:42:27.328Z,2.58
2022-08-26T18:44:54.482Z,2.03
2022-08-26T18:47:21.504Z,2.50
2022-08-26T18:49:48.757Z,2.72
2022-08-26T18:52:15.717Z,2.58
2022-08-26T18:54:42.808Z,2.90
2022-08-26T18:57:10.472Z,2.30
2022-08-26T18:59:37.648Z,2.25
2022-08-26T19:02:04.918Z,2.40
2022-08-26T19:04:31.933Z,2.55
2022-08-26T19:06:58.875Z,2.97
2022-08-26T19:09:26.736Z,2.70
2022-08-26T19:14:21.364Z,2.15
2022-08-26T19:16:49.935Z,2.85
2022-08-26T19:19:17.097Z,3.05
2022-08-26T19:21:44.242Z,2.78
2022-08-26T19:24:15.515Z,2.75
2022-08-26T19:26:57.533Z,2.22
2022-08-26T19:29:27.894Z,2.30
2022-08-26T19:31:55.630Z,2.50
2022-08-26T19:34:22.990Z,2.50
2022-08-26T19:36:54.661Z,2.60
2022-08-26T19:39:22.260Z,2.50
2022-08-26T19:41:49.418Z,2.80
2022-08-26T19:44:38.373Z,2.60
2022-08-26T19:47:07.767Z,2.72
2022-08-26T19:49:34.976Z,2.60
2022-08-26T19:52:03.027Z,2.15
2022-08-26T19:54:30.025Z,2.60
2022-08-26T19:56:57.415Z,2.75
2022-08-26T19:59:24.438Z,2.55
2022-08-26T20:02:00.878Z,2.30
2022-08-26T20:04:32.756Z,2.08
2022-08-26T20:07:02.342Z,2.40
2022-08-26T20:09:30.621Z,3.05
2022-08-26T20:11:57.810Z,2.35
2022-08-26T20:14:26.864Z,2.42
2022-08-26T20:16:54.144Z,1.98
2022-08-26T20:19:39.848Z,2.22
2022-08-26T20:22:06.917Z,2.85
2022-08-26T20:24:35.563Z,2.20
2022-08-26T20:27:07.744Z,2.30
2022-08-26T20:29:36.001Z,2.40
2022-08-26T20:32:05.950Z,2.35
2022-08-26T20:34:33.633Z,2.20
2022-08-26T20:37:01.003Z,2.78
2022-08-26T20:39:30.754Z,2.47
2022-08-26T20:41:58.271Z,2.50
2022-08-26T20:44:25.839Z,2.72
2022-08-26T20:46:52.979Z,2.35
2022-08-26T20:49:20.080Z,2.42
2022-08-26T20:51:51.405Z,2.30
2022-08-26T20:54:27.535Z,2.20
2022-08-26T20:56:57.188Z,3.15
2022-08-26T20:59:24.819Z,2.33
2022-08-26T21:01:51.943Z,2.63
2022-08-26T21:04:23.860Z,2.65
2022-08-26T21:06:52.945Z,1.95
2022-08-26T21:09:22.143Z,2.30
2022-08-26T21:11:49.753Z,2.30
2022-08-26T21:14:17.506Z,2.53
2022-08-26T21:16:45.375Z,2.97
2022-08-26T21:19:14.491Z,3.17
2022-08-26T21:21:42.155Z,2.45
2022-08-26T21:24:09.474Z,2.20
2022-08-26T21:26:37.074Z,2.38
2022-08-26T21:29:04.279Z,2.67
2022-08-26T21:31:32.041Z,2.00
2022-08-26T21:33:59.994Z,2.40
2022-08-26T21:36:27.343Z,2.53
2022-08-26T21:38:58.578Z,2.03
2022-08-26T21:41:26.751Z,2.10
2022-08-26T21:43:58.967Z,2.30
2022-08-26T21:46:29.047Z,2.20
2022-08-26T21:49:01.800Z,2.22
2022-08-26T21:51:34.351Z,2.50
2022-08-26T21:54:02.861Z,2.20
2022-08-26T21:56:31.618Z,2.58
2022-08-26T21:58:59.878Z,2.00
2022-08-26T22:01:34.981Z,2.10
2022-08-26T22:04:04.271Z,2.67
2022-08-26T22:06:32.828Z,2.63
2022-08-26T22:09:00.237Z,2.15
2022-08-26T22:11:28.534Z,1.83
2022-08-26T22:13:56.857Z,2.20
2022-08-26T22:16:24.534Z,2.50
2022-08-26T22:18:51.586Z,2.08
2022-08-26T22:21:20.955Z,2.03
2022-08-26T22:23:48.053Z,2.10
2022-08-26T22:26:25.364Z,2.20
2022-08-26T22:28:58.543Z,2.72
2022-08-26T22:31:37.773Z,2.42
2022-08-26T22:34:11.657Z,2.28
2022-08-26T22:36:43.229Z,2.35
2022-08-26T22:39:15.212Z,2.15
2022-08-26T22:41:43.819Z,2.38
2022-08-26T22:44:12.047Z,2.13
2022-08-26T22:46:40.001Z,2.15
2022-08-26T22:49:09.566Z,2.05
2022-08-26T22:51:36.762Z,2.03
2022-08-26T22:54:04.033Z,2.17
2022-08-26T22:56:30.938Z,2.45
2022-08-26T22:58:57.776Z,2.47
2022-08-26T23:01:24.772Z,2.72
2022-08-26T23:03:51.668Z,2.45
2022-08-26T23:06:18.563Z,2.03
2022-08-26T23:08:47.119Z,2.38
2022-08-26T23:11:14.952Z,2.38
2022-08-26T23:13:42.435Z,2.55
2022-08-26T23:16:12.397Z,2.30
2022-08-26T23:18:40.754Z,2.15
2022-08-26T23:21:07.906Z,3.25
2022-08-26T23:23:35.629Z,2.50
2022-08-26T23:26:05.950Z,2.40
2022-08-26T23:28:34.664Z,2.40
2022-08-26T23:31:01.803Z,2.50
2022-08-26T23:33:48.913Z,2.40
2022-08-26T23:36:18.121Z,2.10
2022-08-26T23:38:52.411Z,2.20
2022-08-26T23:41:22.167Z,2.47
2022-08-26T23:43:49.623Z,2.60
2022-08-26T23:46:16.574Z,2.25
2022-08-26T23:48:44.052Z,2.30
2022-08-26T23:51:29.478Z,2.45
2022-08-26T23:53:57.884Z,2.30
2022-08-26T23:56:25.135Z,2.42
2022-08-26T23:59:01.432Z,2.40
